createdAt,value
2022-11-18T00:00:30.989Z,5.10
2022-11-18T00:05:32.625Z,6.17
2022-11-18T00:10:37.122Z,6.33
2022-11-18T00:15:38.972Z,5.87
2022-11-18T00:20:40.676Z,6.40
2022-11-18T00:25:42.285Z,5.77
2022-11-18T00:30:43.971Z,5.73
2022-11-18T00:35:54.097Z,5.33
2022-11-18T00:41:14.354Z,5.33
2022-11-18T00:46:16.162Z,5.73
2022-11-18T00:51:18.752Z,5.40
2022-11-18T00:56:20.400Z,5.57
2022-11-18T01:01:22.107Z,4.50
2022-11-18T01:06:24.655Z,4.63
2022-11-18T01:11:44.797Z,5.33
2022-11-18T01:16:51.102Z,5.70
2022-11-18T01:21:52.855Z,5.77
2022-11-18T01:26:54.535Z,4.73
2022-11-18T01:32:22.660Z,5.60
2022-11-18T01:37:18.196Z,5.77
2022-11-18T01:42:19.809Z,5.93
2022-11-18T01:47:21.872Z,4.77
2022-11-18T01:52:23.727Z,5.07
2022-11-18T01:57:27.760Z,5.80
2022-11-18T02:02:32.620Z,6.50
2022-11-18T02:07:39.768Z,5.87
2022-11-18T02:12:41.437Z,5.37
2022-11-18T02:17:55.628Z,6.20
2022-11-18T02:23:24.906Z,5.37
2022-11-18T02:28:35.455Z,6.43
2022-11-18T02:33:50.503Z,5.70
2022-11-18T02:39:04.935Z,5.43
2022-11-18T02:44:16.433Z,5.50
2022-11-18T02:49:24.088Z,6.27
2022-11-18T02:54:26.842Z,6.67
2022-11-18T02:59:29.128Z,5.23
2022-11-18T03:04:31.603Z,5.27
2022-11-18T03:09:39.244Z,5.57
2022-11-18T03:15:04.814Z,5.90
2022-11-18T03:20:27.922Z,6.23
2022-11-18T03:25:46.597Z,4.57
2022-11-18T03:31:04.972Z,5.83
2022-11-18T03:36:08.927Z,5.80
2022-11-18T03:41:12.170Z,6.63
2022-11-18T03:46:17.496Z,5.83
2022-11-18T03:51:23.268Z,5.97
2022-11-18T03:56:34.908Z,6.57
2022-11-18T04:01:43.886Z,6.50
2022-11-18T04:07:01.318Z,6.07
2022-11-18T04:12:06.405Z,6.33
2022-11-18T04:17:10.505Z,8.10
2022-11-18T04:22:12.483Z,8.10
2022-11-18T04:27:14.139Z,7.47
2022-11-18T04:32:15.723Z,7.10
2022-11-18T04:37:17.342Z,7.63
2022-11-18T04:42:19.191Z,6.90
2022-11-18T04:47:20.819Z,7.53
2022-11-18T04:52:22.502Z,6.47
2022-11-18T04:57:24.225Z,8.77
2022-11-18T05:02:25.898Z,8.10
2022-11-18T05:07:27.799Z,6.97
2022-11-18T05:12:48.278Z,7.63
2022-11-18T05:17:50.288Z,7.60
2022-11-18T05:22:51.909Z,8.10
2022-11-18T05:27:53.508Z,7.53
2022-11-18T05:32:55.294Z,7.67
2022-11-18T05:37:56.916Z,7.50
2022-11-18T05:43:13.809Z,7.47
2022-11-18T05:48:15.998Z,6.60
2022-11-18T05:53:19.606Z,7.57
2022-11-18T05:58:21.306Z,8.90
2022-11-18T06:03:30.956Z,8.07
2022-11-18T06:08:37.585Z,9.13
2022-11-18T06:13:44.085Z,8.23
2022-11-18T06:18:45.934Z,9.77
2022-11-18T06:23:47.676Z,10.83
2022-11-18T06:28:49.800Z,10.30
2022-11-18T06:33:51.512Z,11.27
2022-11-18T06:38:53.088Z,43.30
2022-11-18T06:43:54.894Z,23.07
2022-11-18T06:48:56.970Z,15.20
2022-11-18T06:53:58.625Z,14.37
2022-11-18T06:59:00.884Z,11.90
2022-11-18T07:04:03.216Z,12.10
2022-11-18T07:09:07.189Z,13.27
2022-11-18T07:14:09.721Z,12.10
2022-11-18T07:19:13.078Z,12.43
2022-11-18T07:24:15.849Z,12.20
2022-11-18T07:29:17.720Z,15.67
2022-11-18T07:34:19.603Z,17.27
2022-11-18T07:39:21.317Z,16.63
2022-11-18T07:44:23.289Z,16.07
2022-11-18T07:49:25.048Z,14.87
2022-11-18T07:54:26.817Z,17.13
2022-11-18T07:59:28.597Z,17.40
2022-11-18T08:04:30.431Z,18.53
2022-11-18T08:09:32.096Z,22.10
2022-11-18T08:14:33.785Z,22.57
2022-11-18T08:19:35.710Z,21.50
2022-11-18T08:24:37.504Z,21.00
2022-11-18T08:29:39.472Z,21.00
2022-11-18T08:34:41.142Z,20.67
2022-11-18T08:39:43.106Z,19.77
2022-11-18T08:44:44.771Z,20.00
2022-11-18T08:49:46.498Z,20.03
2022-11-18T08:54:48.182Z,19.53
2022-11-18T08:59:49.886Z,21.23
2022-11-18T09:04:53.242Z,19.50
2022-11-18T09:09:54.975Z,19.37
2022-11-18T09:15:13.858Z,21.23
2022-11-18T09:20:17.399Z,21.60
2022-11-18T09:25:19.114Z,22.70
2022-11-18T09:30:20.834Z,21.70
2022-11-18T09:35:22.595Z,19.97
2022-11-18T09:40:24.496Z,20.17
2022-11-18T09:45:32.205Z,18.80
2022-11-18T09:50:49.104Z,20.40
2022-11-18T09:55:51.539Z,18.07
2022-11-18T10:00:53.357Z,18.57
2022-11-18T10:06:09.315Z,17.17
2022-11-18T10:11:17.856Z,16.87
2022-11-18T10:16:34.851Z,20.20
2022-11-18T10:22:01.517Z,16.73
2022-11-18T10:27:10.939Z,17.30
2022-11-18T10:32:18.180Z,17.83
2022-11-18T10:37:39.021Z,17.07
2022-11-18T10:42:49.649Z,16.63
2022-11-18T10:47:58.531Z,14.67
2022-11-18T10:53:00.476Z,13.20
2022-11-18T10:58:09.682Z,13.27
2022-11-18T11:03:33.304Z,11.93
2022-11-18T11:08:37.573Z,13.90
2022-11-18T11:13:42.951Z,11.43
2022-11-18T11:18:45.573Z,12.50
2022-11-18T11:23:47.367Z,13.27
2022-11-18T11:29:03.963Z,12.97
2022-11-18T11:34:39.164Z,12.27
2022-11-18T11:40:07.778Z,12.57
2022-11-18T11:45:18.686Z,11.53
2022-11-18T11:50:30.905Z,10.57
2022-11-18T11:55:35.392Z,10.03
2022-11-18T12:00:42.187Z,11.43
2022-11-18T12:05:44.370Z,10.80
2022-11-18T12:10:52.716Z,9.77
2022-11-18T12:16:13.216Z,9.17
2022-11-18T12:21:45.990Z,7.00
2022-11-18T12:26:49.575Z,6.97
2022-11-18T12:32:35.337Z,7.33
2022-11-18T12:37:45.493Z,7.43
2022-11-18T12:43:06.171Z,8.30
2022-11-18T12:48:30.860Z,7.67
2022-11-18T12:53:44.195Z,8.50
2022-11-18T12:58:53.882Z,8.80
2022-11-18T13:04:20.120Z,12.90
2022-11-18T13:09:24.971Z,17.53
2022-11-18T13:14:59.404Z,11.70
2022-11-18T13:20:01.100Z,18.20
2022-11-18T13:25:03.162Z,9.80
2022-11-18T13:30:11.148Z,9.87
2022-11-18T13:35:13.072Z,12.63
2022-11-18T13:40:32.629Z,10.17
2022-11-18T13:45:34.945Z,9.90
2022-11-18T13:50:42.969Z,10.47
2022-11-18T13:55:48.967Z,8.77
2022-11-18T14:01:01.578Z,8.30
2022-11-18T14:06:03.558Z,11.33
2022-11-18T14:11:06.839Z,11.57
2022-11-18T14:16:20.521Z,9.33
2022-11-18T14:21:35.735Z,8.53
2022-11-18T14:26:38.808Z,9.80
2022-11-18T14:31:40.709Z,9.73
2022-11-18T14:36:42.636Z,12.90
2022-11-18T14:41:47.296Z,12.33
2022-11-18T14:46:55.808Z,9.87
2022-11-18T14:51:58.674Z,9.43
2022-11-18T14:57:04.934Z,12.13
2022-11-18T15:02:14.427Z,11.73
2022-11-18T15:07:23.083Z,13.00
2022-11-18T15:12:25.276Z,12.50
2022-11-18T15:17:27.152Z,10.57
2022-11-18T15:22:28.762Z,10.47
2022-11-18T15:27:32.805Z,9.23
2022-11-18T15:32:34.531Z,10.33
2022-11-18T15:37:36.365Z,9.53
2022-11-18T15:42:45.234Z,9.13
2022-11-18T15:47:52.444Z,9.40
2022-11-18T15:52:55.275Z,10.17
2022-11-18T15:57:57.020Z,12.07
2022-11-18T16:02:58.665Z,9.50
2022-11-18T16:08:00.324Z,10.77
2022-11-18T16:13:02.000Z,9.63
2022-11-18T16:18:04.002Z,9.07
2022-11-18T16:23:05.679Z,8.97
2022-11-18T16:28:07.611Z,9.03
2022-11-18T16:33:09.703Z,9.83
2022-11-18T16:38:11.481Z,10.33
2022-11-18T16:43:13.201Z,13.00
2022-11-18T16:48:14.973Z,8.93
2022-11-18T16:53:16.604Z,8.40
2022-11-18T16:58:18.259Z,9.60
2022-11-18T17:03:20.036Z,10.50
2022-11-18T17:08:21.620Z,8.33
2022-11-18T17:13:23.232Z,7.67
2022-11-18T17:18:24.864Z,6.50
2022-11-18T17:23:28.545Z,5.97
2022-11-18T17:28:31.670Z,6.00
2022-11-18T17:33:33.908Z,6.53
2022-11-18T17:38:40.690Z,6.93
2022-11-18T17:43:42.501Z,10.50
2022-11-18T17:48:44.317Z,6.80
2022-11-18T17:53:46.125Z,6.40
2022-11-18T17:58:49.510Z,7.17
2022-11-18T18:03:52.652Z,7.03
2022-11-18T18:08:58.315Z,8.83
2022-11-18T18:14:12.437Z,7.53
2022-11-18T18:19:16.499Z,8.73
2022-11-18T18:24:20.435Z,9.43
2022-11-18T18:29:22.516Z,9.53
2022-11-18T18:34:24.190Z,8.80
2022-11-18T18:39:27.177Z,8.40
2022-11-18T18:44:48.802Z,9.33
2022-11-18T18:49:50.434Z,8.83
2022-11-18T18:54:52.129Z,12.13
2022-11-18T18:59:53.749Z,9.73
2022-11-18T19:04:55.510Z,10.23
2022-11-18T19:09:57.391Z,12.20
2022-11-18T19:14:59.089Z,15.60
2022-11-18T19:20:19.564Z,10.87
2022-11-18T19:25:21.283Z,11.10
2022-11-18T19:30:23.677Z,12.10
2022-11-18T19:35:25.889Z,12.87
2022-11-18T19:40:27.639Z,11.60
2022-11-18T19:45:29.247Z,12.37
2022-11-18T19:50:31.685Z,12.43
2022-11-18T19:55:33.371Z,12.33
2022-11-18T20:00:35.000Z,10.90
2022-11-18T20:05:51.818Z,12.83
2022-11-18T20:10:53.575Z,11.83
2022-11-18T20:16:03.011Z,13.67
2022-11-18T20:33:07.317Z,13.40
2022-11-18T20:38:51.069Z,14.23
2022-11-18T20:44:00.465Z,13.53
2022-11-18T20:49:12.338Z,15.07
2022-11-18T20:55:19.467Z,14.87
2022-11-18T21:01:30.361Z,17.03
2022-11-18T21:07:27.383Z,17.47
2022-11-18T21:12:29.250Z,16.70
2022-11-18T21:17:30.922Z,17.80
2022-11-18T21:22:32.771Z,17.40
2022-11-18T21:27:34.497Z,17.37
2022-11-18T21:32:36.130Z,17.80
2022-11-18T21:37:37.796Z,17.83
2022-11-18T21:42:40.001Z,17.50
2022-11-18T21:47:41.631Z,18.97
2022-11-18T21:52:43.266Z,19.17
2022-11-18T21:57:45.208Z,19.03
2022-11-18T22:02:50.535Z,18.47
2022-11-18T22:07:52.228Z,21.30
2022-11-18T22:12:53.886Z,19.47
2022-11-18T22:17:55.864Z,21.10
2022-11-18T22:22:57.563Z,20.27
2022-11-18T22:27:59.387Z,21.37
2022-11-18T22:33:01.188Z,20.07
2022-11-18T22:38:02.836Z,21.20
2022-11-18T22:43:04.508Z,21.33
2022-11-18T22:48:06.302Z,20.30
2022-11-18T22:53:10.214Z,21.70
2022-11-18T23:03:38.254Z,20.90
2022-11-18T23:08:41.662Z,20.27
2022-11-18T23:14:04.355Z,22.27
2022-11-18T23:19:11.239Z,19.80
2022-11-18T23:24:17.916Z,23.87
2022-11-18T23:29:20.745Z,22.63
2022-11-18T23:34:22.581Z,21.23
2022-11-18T23:39:24.179Z,20.93
2022-11-18T23:44:45.095Z,21.57
2022-11-18T23:49:46.799Z,23.13
2022-11-18T23:54:49.795Z,21.80
2022-11-18T23:59:51.429Z,22.77
